עמוד ראשי
METAR-TAF:

METAR-TAF

שדות תעופה :

בגדאד, עיראק

קו רוחב: 33-15-45N, קו אורך: 44-14-04E, גובה: 35מטר

תצפית מזג אוויר נוכחית

הדו"ח נערך לפני 37דקות, בשעה 06:00 UTC
רוח 8קשר מכיוון צפון, משתנה בין צפון-מערב ו צפון/צפון-מזרח
טמפרטורת 38 צלסיוס
לחות 17%
לחץ 1002 hPa
ראות: 8000מטר

METAR: ORBI 200600Z 35008KT 320V020 8000 NSC 38/09 Q1002 NOSIG

זמן: 09:37 (06:37 UTC)

תחזית

הדו"ח נערך לפני 2 שעות ו 37דקות, בשעה 04:00 UTC
תחזית בתוקף מ 20 ב 06 UTC עד 21 ב 06 UTC
רוח 10קשר מכיוון צפון/צפון-מערב
ראות: 8000מטר
זמנית מ -
20 ב 10 UTC עד 20 ב 15 UTC
ראות: 5000מטר
אבק נושב,

TAF: ORBI 200400Z 2006/2106 34010KT 8000 NSC TEMPO 2010/2015 G20KT 5000 BLDU

תצפיות ותחזיות מזג אוויר לגבי יותר מ- 4,000 שדות תעופה ברחבי העולם. דוחות METAR ו- TAF.

התחנות הזמינות מסומנות בנקודות צהובות ואדומות על גבי המפה.

העבר את העכבר לנקודה הצבעונית על מנת לראות את שם התחנה.

לאחר מכן, לחץ כדי לראות את תוכן ואת תחזיות מזג האוויר.

כדי לשנות את המפה: לחץ על הכפתורים הירוקים עם הפלוס השחור כדי להתקרב; על הכפתור הירוק עם המקף כדי להתרחק; או בחיצים הירוקים למפות סמוכות.


METAR-TAF: